createdAt,value
2023-01-17T00:00:46.835Z,4.32
2023-01-17T00:01:46.809Z,4.36
2023-01-17T00:02:46.850Z,4.35
2023-01-17T00:03:46.900Z,4.38
2023-01-17T00:04:46.801Z,4.29
2023-01-17T00:05:46.782Z,4.34
2023-01-17T00:06:46.758Z,4.39
2023-01-17T00:07:46.779Z,4.36
2023-01-17T00:08:46.736Z,4.39
2023-01-17T00:09:46.732Z,4.34
2023-01-17T00:10:46.760Z,4.34
2023-01-17T00:11:46.719Z,4.46
2023-01-17T00:12:46.721Z,4.43
2023-01-17T00:13:46.678Z,4.43
2023-01-17T00:14:46.703Z,4.43
2023-01-17T00:15:46.667Z,4.34
2023-01-17T00:16:46.648Z,4.34
2023-01-17T00:17:46.666Z,4.34
2023-01-17T00:18:46.643Z,4.39
2023-01-17T00:19:46.631Z,4.34
2023-01-17T00:20:46.598Z,4.29
2023-01-17T00:21:46.588Z,4.24
2023-01-17T00:22:46.612Z,4.26
2023-01-17T00:23:46.571Z,4.26
2023-01-17T00:24:46.560Z,4.20
2023-01-17T00:25:46.570Z,4.25
2023-01-17T00:26:46.566Z,4.11
2023-01-17T00:27:46.554Z,4.16
2023-01-17T00:28:46.529Z,4.11
2023-01-17T00:29:46.525Z,4.18
2023-01-17T00:30:46.504Z,4.14
2023-01-17T00:31:46.582Z,4.14
2023-01-17T00:32:46.504Z,4.13
2023-01-17T00:33:46.480Z,4.04
2023-01-17T00:34:46.462Z,4.02
2023-01-17T00:35:46.463Z,4.04
2023-01-17T00:36:46.442Z,4.07
2023-01-17T00:37:46.484Z,3.98
2023-01-17T00:38:46.417Z,4.10
2023-01-17T00:39:46.413Z,4.07
2023-01-17T00:40:46.401Z,4.14
2023-01-17T00:41:46.389Z,4.13
2023-01-17T00:42:46.415Z,4.17
2023-01-17T00:43:46.359Z,4.11
2023-01-17T00:44:46.345Z,4.14
2023-01-17T00:45:46.368Z,4.10
2023-01-17T00:46:46.441Z,4.10
2023-01-17T00:47:46.342Z,4.14
2023-01-17T00:48:46.305Z,4.16
2023-01-17T00:49:46.283Z,4.17
2023-01-17T00:50:46.287Z,4.14
2023-01-17T00:51:46.288Z,4.13
2023-01-17T00:52:46.268Z,4.11
2023-01-17T00:53:46.247Z,4.17
2023-01-17T00:54:46.240Z,4.13
2023-01-17T00:55:46.230Z,4.11
2023-01-17T00:56:46.236Z,4.18
2023-01-17T00:57:46.230Z,4.16
2023-01-17T00:58:46.200Z,4.17
2023-01-17T00:59:46.186Z,4.17
2023-01-17T01:00:46.276Z,4.24
2023-01-17T01:01:46.420Z,4.17
2023-01-17T01:02:46.290Z,4.25
2023-01-17T01:03:46.148Z,4.24
2023-01-17T01:04:46.132Z,4.10
2023-01-17T01:05:46.153Z,4.16
2023-01-17T01:06:46.105Z,4.16
2023-01-17T01:07:46.159Z,4.16
2023-01-17T01:08:46.106Z,4.17
2023-01-17T01:09:46.080Z,4.02
2023-01-17T01:10:46.063Z,4.08
2023-01-17T01:11:46.068Z,4.07
2023-01-17T01:12:46.066Z,4.10
2023-01-17T01:13:46.037Z,4.06
2023-01-17T01:14:46.049Z,4.10
2023-01-17T01:15:46.052Z,4.11
2023-01-17T01:16:46.009Z,4.10
2023-01-17T01:17:46.012Z,3.96
2023-01-17T01:18:45.990Z,4.07
2023-01-17T01:19:45.970Z,3.99
2023-01-17T01:20:45.967Z,4.07
2023-01-17T01:21:45.952Z,4.06
2023-01-17T01:22:45.978Z,4.11
2023-01-17T01:23:45.948Z,4.00
2023-01-17T01:24:45.914Z,4.08
2023-01-17T01:25:45.898Z,4.08
2023-01-17T01:26:45.901Z,3.96
2023-01-17T01:27:45.900Z,4.06
2023-01-17T01:28:45.888Z,4.02
2023-01-17T01:29:45.864Z,3.95
2023-01-17T01:30:45.857Z,3.99
2023-01-17T01:31:45.913Z,3.95
2023-01-17T01:32:45.844Z,4.00
2023-01-17T01:33:45.824Z,3.95
2023-01-17T01:34:45.830Z,4.00
2023-01-17T01:35:45.803Z,3.98
2023-01-17T01:36:45.790Z,3.92
2023-01-17T01:37:45.808Z,3.98
2023-01-17T01:38:45.775Z,3.95
2023-01-17T01:39:45.793Z,4.02
2023-01-17T01:40:45.760Z,4.04
2023-01-17T01:41:45.748Z,3.93
2023-01-17T01:42:45.731Z,4.00
2023-01-17T01:43:45.705Z,4.11
2023-01-17T01:44:45.717Z,3.99
2023-01-17T01:45:45.764Z,4.08
2023-01-17T01:46:45.690Z,4.06
2023-01-17T01:47:45.696Z,4.08
2023-01-17T01:48:45.661Z,4.18
2023-01-17T01:49:45.650Z,4.13
2023-01-17T01:50:45.641Z,4.16
2023-01-17T01:51:45.634Z,4.16
2023-01-17T01:52:45.663Z,4.07
2023-01-17T01:53:45.600Z,4.10
2023-01-17T01:54:45.602Z,4.11
2023-01-17T01:55:45.619Z,4.07
2023-01-17T01:56:45.575Z,4.04
2023-01-17T01:57:45.577Z,4.02
2023-01-17T01:58:45.578Z,4.08
2023-01-17T01:59:45.537Z,4.00
2023-01-17T02:00:45.772Z,4.14
2023-01-17T02:01:45.664Z,4.16
2023-01-17T02:02:45.524Z,4.18
2023-01-17T02:03:45.526Z,4.06
2023-01-17T02:04:45.515Z,4.16
2023-01-17T02:05:45.484Z,4.10
2023-01-17T02:06:45.490Z,4.11
2023-01-17T02:07:45.476Z,4.08
2023-01-17T02:08:45.451Z,4.17
2023-01-17T02:09:45.443Z,4.14
2023-01-17T02:10:45.460Z,4.13
2023-01-17T02:11:45.434Z,4.13
2023-01-17T02:12:45.418Z,4.14
2023-01-17T02:13:45.391Z,4.16
2023-01-17T02:14:45.382Z,4.13
2023-01-17T02:15:45.416Z,4.18
2023-01-17T02:16:45.436Z,4.21
2023-01-17T02:17:45.348Z,4.18
2023-01-17T02:18:45.342Z,4.17
2023-01-17T02:19:45.322Z,4.11
2023-01-17T02:20:45.357Z,4.13
2023-01-17T02:21:45.323Z,4.16
2023-01-17T02:22:45.336Z,4.14
2023-01-17T02:23:45.284Z,4.17
2023-01-17T02:24:45.284Z,4.18
2023-01-17T02:25:45.274Z,4.20
2023-01-17T02:26:45.274Z,4.21
2023-01-17T02:27:45.271Z,4.26
2023-01-17T02:28:45.244Z,4.17
2023-01-17T02:29:45.238Z,4.21
2023-01-17T02:30:45.216Z,4.21
2023-01-17T02:31:45.276Z,4.24
2023-01-17T02:32:45.211Z,4.25
2023-01-17T02:33:45.183Z,4.34
2023-01-17T02:34:45.185Z,4.24
2023-01-17T02:35:45.150Z,4.35
2023-01-17T02:36:45.160Z,4.28
2023-01-17T02:37:45.177Z,4.26
2023-01-17T02:38:45.127Z,4.28
2023-01-17T02:39:45.113Z,4.24
2023-01-17T02:40:45.148Z,4.20
2023-01-17T02:41:45.093Z,4.24
2023-01-17T02:42:45.102Z,4.32
2023-01-17T02:43:45.090Z,4.34
2023-01-17T02:44:45.065Z,4.34
2023-01-17T02:45:45.069Z,4.35
2023-01-17T02:46:45.067Z,4.35
2023-01-17T02:47:45.043Z,4.28
2023-01-17T02:48:45.023Z,4.34
2023-01-17T02:49:45.006Z,4.25
2023-01-17T02:50:44.997Z,4.24
2023-01-17T02:51:44.998Z,4.26
2023-01-17T02:52:45.026Z,4.20
2023-01-17T02:53:44.956Z,4.34
2023-01-17T02:54:44.957Z,4.34
2023-01-17T02:55:44.941Z,4.28
2023-01-17T02:56:44.935Z,4.35
2023-01-17T02:57:44.943Z,4.38
2023-01-17T02:58:44.973Z,4.36
2023-01-17T02:59:44.941Z,4.35
2023-01-17T03:00:44.948Z,4.35
2023-01-17T03:01:44.967Z,4.34
2023-01-17T03:02:44.934Z,4.38
2023-01-17T03:03:44.861Z,4.34
2023-01-17T03:04:44.922Z,4.43
2023-01-17T03:05:44.830Z,4.43
2023-01-17T03:06:44.827Z,4.47
2023-01-17T03:07:44.821Z,4.46
2023-01-17T03:08:44.819Z,4.38
2023-01-17T03:09:44.788Z,4.38
2023-01-17T03:10:44.799Z,4.42
2023-01-17T03:11:44.777Z,4.47
2023-01-17T03:12:44.780Z,4.34
2023-01-17T03:13:44.755Z,4.39
2023-01-17T03:14:44.742Z,4.38
2023-01-17T03:15:44.749Z,4.38
2023-01-17T03:16:44.791Z,4.38
2023-01-17T03:17:44.724Z,4.32
2023-01-17T03:18:44.706Z,4.53
2023-01-17T03:19:44.694Z,4.49
2023-01-17T03:20:44.743Z,4.43
2023-01-17T03:21:44.679Z,4.47
2023-01-17T03:22:44.701Z,4.50
2023-01-17T03:23:44.657Z,4.51
2023-01-17T03:24:44.636Z,4.53
2023-01-17T03:25:44.622Z,4.50
2023-01-17T03:26:44.613Z,4.47
2023-01-17T03:27:44.625Z,4.50
2023-01-17T03:28:44.648Z,4.46
2023-01-17T03:29:44.605Z,4.50
2023-01-17T03:30:44.602Z,4.64
2023-01-17T03:31:44.578Z,4.62
2023-01-17T03:32:44.564Z,4.65
2023-01-17T03:33:44.553Z,4.62
2023-01-17T03:34:44.573Z,4.64
2023-01-17T03:35:44.524Z,4.59
2023-01-17T03:36:44.506Z,4.61
2023-01-17T03:37:44.556Z,4.51
2023-01-17T03:38:44.493Z,4.51
2023-01-17T03:39:44.479Z,4.54
2023-01-17T03:40:44.482Z,4.47
2023-01-17T03:41:44.459Z,4.50
2023-01-17T03:42:44.465Z,4.47
2023-01-17T03:43:44.436Z,4.53
2023-01-17T03:44:44.441Z,4.50
2023-01-17T03:45:44.458Z,4.50
2023-01-17T03:46:44.430Z,4.46
2023-01-17T03:47:44.428Z,4.62
2023-01-17T03:48:44.393Z,4.61
2023-01-17T03:49:44.370Z,4.57
2023-01-17T03:50:44.377Z,4.65
2023-01-17T03:51:44.353Z,4.57
2023-01-17T03:52:44.381Z,4.57
2023-01-17T03:53:44.343Z,4.57
2023-01-17T03:54:44.316Z,4.59
2023-01-17T03:55:44.309Z,4.64
2023-01-17T03:56:44.301Z,4.62
2023-01-17T03:57:44.304Z,4.64
2023-01-17T03:58:44.347Z,4.56
2023-01-17T03:59:44.265Z,4.59
2023-01-17T04:00:44.251Z,4.62
2023-01-17T04:01:44.337Z,4.64
2023-01-17T04:02:44.281Z,4.62
2023-01-17T04:03:44.238Z,4.67
2023-01-17T04:04:44.246Z,4.65
2023-01-17T04:05:44.191Z,4.71
2023-01-17T04:06:44.200Z,4.65
2023-01-17T04:07:44.193Z,4.64
2023-01-17T04:08:44.162Z,4.68
2023-01-17T04:09:44.160Z,4.67
2023-01-17T04:10:44.208Z,4.68
2023-01-17T04:11:44.137Z,4.69
2023-01-17T04:12:44.154Z,4.69
2023-01-17T04:13:44.119Z,4.77
2023-01-17T04:14:44.115Z,4.75
2023-01-17T04:15:44.092Z,4.77
2023-01-17T04:16:44.269Z,4.77
2023-01-17T04:17:44.111Z,4.80
2023-01-17T04:18:44.055Z,4.79
2023-01-17T04:19:44.071Z,4.71
2023-01-17T04:20:44.059Z,4.71
2023-01-17T04:21:44.025Z,4.67
2023-01-17T04:22:44.067Z,4.68
2023-01-17T04:23:44.028Z,4.71
2023-01-17T04:24:44.010Z,4.72
2023-01-17T04:25:43.989Z,4.69
2023-01-17T04:26:44.011Z,4.65
2023-01-17T04:27:43.977Z,4.68
2023-01-17T04:28:43.978Z,4.59
2023-01-17T04:29:46.583Z,4.65
2023-01-17T04:30:43.993Z,4.67
2023-01-17T04:31:44.074Z,4.67
2023-01-17T04:32:43.937Z,4.61
2023-01-17T04:33:43.903Z,4.62
2023-01-17T04:34:43.912Z,4.59
2023-01-17T04:35:43.906Z,4.64
2023-01-17T04:36:43.889Z,4.65
2023-01-17T04:37:43.890Z,4.59
2023-01-17T04:38:43.852Z,4.68
2023-01-17T04:39:43.837Z,4.64
2023-01-17T04:40:43.890Z,4.65
2023-01-17T04:41:43.815Z,4.61
2023-01-17T04:42:43.822Z,4.54
2023-01-17T04:43:43.821Z,4.67
2023-01-17T04:44:43.804Z,4.62
2023-01-17T04:45:43.780Z,4.53
2023-01-17T04:46:43.788Z,4.59
2023-01-17T04:47:43.769Z,4.46
2023-01-17T04:48:43.747Z,4.51
2023-01-17T04:49:44.275Z,4.44
2023-01-17T04:50:43.734Z,4.31
2023-01-17T04:51:43.733Z,4.36
2023-01-17T04:52:43.739Z,4.38
2023-01-17T04:53:43.707Z,4.32
2023-01-17T04:54:43.693Z,4.26
2023-01-17T04:55:43.675Z,4.17
2023-01-17T04:56:43.666Z,4.20
2023-01-17T04:57:43.682Z,4.16
2023-01-17T04:58:43.661Z,4.14
2023-01-17T04:59:43.630Z,4.14
2023-01-17T05:00:43.609Z,4.00
2023-01-17T05:01:43.728Z,4.16
2023-01-17T05:02:43.648Z,4.13
2023-01-17T05:03:43.634Z,4.10
2023-01-17T05:04:43.612Z,4.11
2023-01-17T05:05:43.564Z,4.14
2023-01-17T05:06:43.576Z,4.14
2023-01-17T05:07:43.578Z,4.16
2023-01-17T05:08:43.533Z,4.11
2023-01-17T05:09:43.520Z,3.99
2023-01-17T05:10:43.541Z,4.06
2023-01-17T05:11:43.497Z,3.99
2023-01-17T05:12:43.515Z,3.95
2023-01-17T05:13:43.499Z,3.80
2023-01-17T05:14:43.470Z,3.77
2023-01-17T05:15:43.496Z,3.63
2023-01-17T05:16:43.477Z,3.63
2023-01-17T05:17:43.429Z,3.57
2023-01-17T05:18:43.439Z,3.50
2023-01-17T05:19:43.409Z,3.34
2023-01-17T05:20:43.400Z,3.35
2023-01-17T05:21:43.431Z,3.41
2023-01-17T05:22:43.387Z,3.25
2023-01-17T05:23:43.419Z,3.19
2023-01-17T05:24:43.360Z,3.12
2023-01-17T05:25:43.360Z,3.17
2023-01-17T05:26:43.349Z,3.02
2023-01-17T05:27:43.367Z,2.98
2023-01-17T05:28:43.327Z,2.98
2023-01-17T05:29:43.306Z,2.90
2023-01-17T05:30:43.353Z,2.81
2023-01-17T05:31:43.284Z,2.94
2023-01-17T05:32:43.296Z,2.95
2023-01-17T05:33:43.301Z,2.77
2023-01-17T05:34:43.276Z,2.73
2023-01-17T05:35:43.237Z,2.44
2023-01-17T05:36:43.232Z,2.43
2023-01-17T05:37:43.227Z,2.27
2023-01-17T05:38:43.220Z,2.07
2023-01-17T05:39:43.285Z,1.92
2023-01-17T05:40:43.198Z,1.79
2023-01-17T05:41:43.183Z,1.63
2023-01-17T05:42:43.187Z,1.53
2023-01-17T05:43:43.165Z,1.61
2023-01-17T05:44:43.145Z,1.39
2023-01-17T05:45:43.172Z,1.44
2023-01-17T05:46:43.129Z,1.71
2023-01-17T05:47:43.137Z,1.89
2023-01-17T05:48:43.109Z,2.23
2023-01-17T05:49:45.833Z,2.22
2023-01-17T05:50:43.080Z,2.37
2023-01-17T05:51:43.117Z,2.33
2023-01-17T05:52:43.096Z,2.12
2023-01-17T05:53:43.043Z,1.92
2023-01-17T05:54:43.041Z,1.86
2023-01-17T05:55:43.078Z,1.67
2023-01-17T05:56:43.013Z,1.57
2023-01-17T05:57:43.060Z,1.56
2023-01-17T05:58:43.009Z,1.54
2023-01-17T05:59:42.988Z,1.56
2023-01-17T06:00:42.981Z,1.64
2023-01-17T06:01:42.973Z,1.67
2023-01-17T06:02:43.021Z,1.67
2023-01-17T06:03:42.995Z,1.65
2023-01-17T06:04:42.984Z,1.64
2023-01-17T06:05:42.934Z,1.68
2023-01-17T06:06:42.913Z,1.64
2023-01-17T06:07:42.931Z,1.56
2023-01-17T06:08:42.897Z,1.64
2023-01-17T06:09:42.938Z,1.63
2023-01-17T06:10:42.872Z,1.82
2023-01-17T06:11:42.896Z,1.86
2023-01-17T06:12:42.866Z,1.95
2023-01-17T06:13:42.843Z,2.08
2023-01-17T06:14:42.826Z,2.08
2023-01-17T06:15:42.922Z,2.11
2023-01-17T06:16:42.804Z,2.23
2023-01-17T06:17:42.845Z,2.15
2023-01-17T06:18:42.806Z,2.14
2023-01-17T06:19:42.783Z,2.18
2023-01-17T06:20:42.764Z,2.22
2023-01-17T06:21:42.783Z,2.38
2023-01-17T06:22:42.763Z,2.53
2023-01-17T06:23:42.741Z,2.66
2023-01-17T06:24:42.732Z,2.63
2023-01-17T06:25:42.715Z,2.59
2023-01-17T06:26:42.717Z,2.74
2023-01-17T06:27:42.745Z,2.66
2023-01-17T06:28:42.727Z,2.79
2023-01-17T06:29:42.668Z,2.84
2023-01-17T06:30:42.655Z,2.73
2023-01-17T06:31:42.648Z,2.69
2023-01-17T06:32:42.653Z,2.77
2023-01-17T06:33:42.630Z,2.71
2023-01-17T06:34:42.659Z,2.76
2023-01-17T06:35:42.608Z,2.71
2023-01-17T06:36:42.596Z,2.77
2023-01-17T06:37:42.608Z,2.80
2023-01-17T06:38:42.577Z,2.74
2023-01-17T06:39:42.571Z,2.79
2023-01-17T06:40:42.632Z,2.77
2023-01-17T06:41:42.563Z,2.74
2023-01-17T06:42:42.549Z,2.71
2023-01-17T06:43:42.547Z,2.61
2023-01-17T06:44:42.513Z,2.69
2023-01-17T06:45:42.514Z,2.56
2023-01-17T06:46:42.607Z,2.51
2023-01-17T06:47:42.499Z,2.48
2023-01-17T06:48:42.470Z,2.55
2023-01-17T06:49:42.460Z,2.50
2023-01-17T06:50:42.465Z,2.55
2023-01-17T06:51:43.689Z,2.56
2023-01-17T06:52:42.461Z,2.45
2023-01-17T06:53:42.415Z,2.56
2023-01-17T06:54:42.412Z,2.55
2023-01-17T06:55:42.401Z,2.61
2023-01-17T06:56:42.417Z,2.58
2023-01-17T06:57:42.456Z,2.61
2023-01-17T06:58:42.372Z,2.59
2023-01-17T06:59:42.374Z,2.62
2023-01-17T07:00:42.391Z,2.63
2023-01-17T07:01:42.376Z,2.58
2023-01-17T07:02:42.375Z,2.59
2023-01-17T07:03:42.371Z,2.66
2023-01-17T07:04:42.305Z,2.69
2023-01-17T07:05:42.291Z,2.53
2023-01-17T07:06:42.277Z,2.48
2023-01-17T07:07:42.294Z,2.58
2023-01-17T07:08:42.294Z,2.55
2023-01-17T07:09:42.245Z,2.44
2023-01-17T07:10:42.240Z,2.47
2023-01-17T07:11:42.229Z,2.47
2023-01-17T07:12:42.242Z,2.37
2023-01-17T07:13:42.224Z,2.37
2023-01-17T07:14:42.240Z,2.33
2023-01-17T07:15:42.235Z,2.38
2023-01-17T07:16:42.177Z,2.27
2023-01-17T07:17:42.195Z,2.26
2023-01-17T07:18:42.154Z,2.20
2023-01-17T07:19:42.146Z,2.25
2023-01-17T07:20:42.452Z,2.19
2023-01-17T07:21:42.126Z,2.33
2023-01-17T07:22:42.121Z,2.27
2023-01-17T07:23:42.104Z,2.20
2023-01-17T07:24:42.107Z,2.20
2023-01-17T07:25:42.091Z,2.12
2023-01-17T07:26:42.110Z,2.20
2023-01-17T07:27:42.099Z,2.14
2023-01-17T07:28:42.054Z,2.08
2023-01-17T07:29:42.047Z,2.20
2023-01-17T07:30:42.036Z,2.25
2023-01-17T07:31:42.083Z,2.25
2023-01-17T07:32:42.063Z,2.14
2023-01-17T07:33:42.003Z,2.12
2023-01-17T07:34:41.995Z,2.18
2023-01-17T07:35:41.971Z,2.15
2023-01-17T07:36:41.968Z,2.09
2023-01-17T07:37:41.986Z,2.09
2023-01-17T07:38:41.962Z,2.20
2023-01-17T07:39:41.951Z,2.12
2023-01-17T07:40:42.583Z,2.27
2023-01-17T07:41:41.918Z,2.22
2023-01-17T07:42:41.945Z,2.25
2023-01-17T07:43:41.898Z,2.29
2023-01-17T07:44:41.899Z,2.37
2023-01-17T07:45:41.872Z,2.41
2023-01-17T07:46:41.879Z,2.48
2023-01-17T07:47:41.891Z,2.50
2023-01-17T07:48:41.840Z,2.59
2023-01-17T07:49:41.830Z,2.63
2023-01-17T07:50:41.852Z,2.59
2023-01-17T07:51:41.824Z,2.69
2023-01-17T07:52:41.819Z,2.76
2023-01-17T07:53:41.794Z,2.71
2023-01-17T07:54:41.787Z,2.73
2023-01-17T07:55:41.766Z,2.71
2023-01-17T07:56:41.783Z,2.74
2023-01-17T07:57:41.785Z,2.81
2023-01-17T07:58:41.739Z,2.71
2023-01-17T07:59:41.729Z,2.73
2023-01-17T08:00:41.740Z,2.80
2023-01-17T08:01:41.829Z,2.76
2023-01-17T08:02:41.742Z,2.76
2023-01-17T08:03:41.741Z,2.83
2023-01-17T08:04:41.694Z,2.77
2023-01-17T08:05:41.664Z,2.79
2023-01-17T08:06:41.649Z,2.83
2023-01-17T08:07:41.647Z,2.83
2023-01-17T08:08:41.651Z,2.92
2023-01-17T08:09:41.612Z,2.94
2023-01-17T08:10:41.607Z,2.92
2023-01-17T08:11:41.633Z,2.87
2023-01-17T08:12:41.593Z,2.84
2023-01-17T08:13:41.592Z,2.97
2023-01-17T08:14:41.573Z,2.92
2023-01-17T08:15:41.568Z,3.08
2023-01-17T08:16:41.556Z,3.05
2023-01-17T08:17:41.547Z,3.07
2023-01-17T08:18:41.531Z,3.13
2023-01-17T08:19:41.564Z,3.13
2023-01-17T08:20:41.503Z,3.15
2023-01-17T08:21:41.506Z,3.23
2023-01-17T08:22:41.492Z,3.23
2023-01-17T08:23:41.470Z,3.25
2023-01-17T08:24:41.453Z,3.23
2023-01-17T08:25:41.439Z,3.31
2023-01-17T08:26:41.427Z,3.23
2023-01-17T08:27:41.460Z,3.33
2023-01-17T08:28:41.428Z,3.28
2023-01-17T08:29:41.515Z,3.20
2023-01-17T08:30:41.799Z,3.22
2023-01-17T08:31:41.443Z,3.31
2023-01-17T08:32:41.379Z,3.35
2023-01-17T08:33:41.356Z,3.30
2023-01-17T08:34:41.344Z,3.33
2023-01-17T08:35:41.374Z,3.35
2023-01-17T08:36:41.320Z,3.28
2023-01-17T08:37:41.326Z,3.37
2023-01-17T08:38:41.456Z,3.37
2023-01-17T08:39:41.931Z,3.45
2023-01-17T08:40:42.586Z,3.33
2023-01-17T08:41:41.269Z,3.39
2023-01-17T08:42:41.273Z,3.41
2023-01-17T08:43:41.286Z,3.26
2023-01-17T08:44:41.271Z,3.31
2023-01-17T08:45:41.263Z,3.22
2023-01-17T08:46:41.226Z,3.26
2023-01-17T08:47:41.484Z,3.10
2023-01-17T08:48:41.639Z,3.16
2023-01-17T08:49:41.185Z,3.19
2023-01-17T08:50:41.180Z,3.17
2023-01-17T08:51:41.184Z,3.12
2023-01-17T08:52:41.183Z,3.17
2023-01-17T08:53:41.190Z,3.23
2023-01-17T08:54:41.135Z,3.17
2023-01-17T08:55:41.144Z,3.19
2023-01-17T08:56:41.269Z,3.16
2023-01-17T08:57:41.759Z,3.17
2023-01-17T08:58:41.088Z,3.16
2023-01-17T08:59:41.074Z,3.15
2023-01-17T09:00:41.129Z,3.23
2023-01-17T09:01:41.217Z,3.37
2023-01-17T09:02:41.071Z,3.53
2023-01-17T09:03:41.098Z,3.67
2023-01-17T09:04:41.112Z,3.80
2023-01-17T09:05:41.424Z,3.81
2023-01-17T09:06:41.347Z,3.90
2023-01-17T09:07:41.042Z,3.92
2023-01-17T09:08:41.037Z,3.92
2023-01-17T09:09:40.974Z,3.93
2023-01-17T09:10:40.957Z,4.00
2023-01-17T09:11:40.976Z,4.04
2023-01-17T09:12:40.957Z,4.14
2023-01-17T09:13:40.958Z,4.20
2023-01-17T09:14:41.265Z,4.35
2023-01-17T09:15:41.199Z,4.35
2023-01-17T09:16:40.957Z,4.49
2023-01-17T09:17:40.889Z,4.35
2023-01-17T09:18:40.937Z,4.34
2023-01-17T09:19:40.890Z,4.18
2023-01-17T09:20:40.936Z,4.14
2023-01-17T09:21:40.853Z,4.18
2023-01-17T09:22:40.851Z,4.20
2023-01-17T09:23:41.225Z,4.28
2023-01-17T09:24:41.202Z,4.21
2023-01-17T09:25:40.799Z,4.42
2023-01-17T09:26:40.791Z,4.35
2023-01-17T09:27:40.797Z,4.35
2023-01-17T09:28:40.811Z,4.32
2023-01-17T09:29:40.837Z,4.49
2023-01-17T09:30:40.783Z,4.64
2023-01-17T09:31:40.746Z,4.64
2023-01-17T09:32:41.327Z,4.75
2023-01-17T09:33:41.095Z,4.88
2023-01-17T09:34:40.707Z,5.01
2023-01-17T09:35:40.692Z,5.14
2023-01-17T09:36:40.681Z,5.22
2023-01-17T09:37:40.906Z,5.35
2023-01-17T09:38:40.661Z,5.40
2023-01-17T09:39:40.668Z,5.63
2023-01-17T09:40:40.649Z,5.87
2023-01-17T09:41:41.025Z,5.63
2023-01-17T09:42:40.658Z,5.44
2023-01-17T09:43:41.067Z,5.49
2023-01-17T09:44:40.631Z,5.58
2023-01-17T09:45:40.665Z,5.65
2023-01-17T09:46:40.580Z,5.75
2023-01-17T09:47:40.600Z,6.06
2023-01-17T09:48:40.556Z,6.20
2023-01-17T09:49:40.545Z,6.17
2023-01-17T09:50:41.648Z,6.17
2023-01-17T09:51:40.523Z,6.03
2023-01-17T09:52:40.535Z,5.78
2023-01-17T09:53:40.515Z,5.78
2023-01-17T09:54:40.491Z,5.58
2023-01-17T09:55:40.496Z,5.55
2023-01-17T09:56:40.479Z,5.63
2023-01-17T09:57:40.492Z,5.66
2023-01-17T09:58:40.512Z,5.80
2023-01-17T09:59:42.844Z,5.88
2023-01-17T10:00:40.423Z,5.90
2023-01-17T10:01:40.639Z,5.92
2023-01-17T10:02:40.665Z,5.88
2023-01-17T10:03:40.495Z,5.88
2023-01-17T10:04:40.449Z,5.95
2023-01-17T10:05:40.403Z,5.95
2023-01-17T10:06:40.363Z,5.93
2023-01-17T10:07:40.460Z,6.01
2023-01-17T10:08:40.693Z,5.92
2023-01-17T10:09:49.313Z,5.92
2023-01-17T10:10:40.331Z,5.88
2023-01-17T10:11:40.326Z,5.88
2023-01-17T10:12:40.293Z,5.81
2023-01-17T10:13:40.285Z,5.85
2023-01-17T10:14:40.273Z,5.95
2023-01-17T10:15:40.293Z,5.96
2023-01-17T10:16:40.302Z,5.90
2023-01-17T10:17:40.652Z,5.99
2023-01-17T10:18:40.305Z,5.80
2023-01-17T10:19:40.225Z,5.62
2023-01-17T10:20:40.233Z,5.60
2023-01-17T10:21:40.214Z,5.63
2023-01-17T10:22:40.194Z,5.66
2023-01-17T10:23:40.187Z,5.63
2023-01-17T10:24:40.170Z,5.75
2023-01-17T10:25:40.418Z,5.65
2023-01-17T10:26:40.490Z,5.80
2023-01-17T10:27:40.166Z,5.84
2023-01-17T10:28:40.121Z,5.81
2023-01-17T10:29:40.107Z,5.81
2023-01-17T10:30:40.200Z,5.78
2023-01-17T10:31:40.090Z,5.73
2023-01-17T10:32:40.098Z,5.74
2023-01-17T10:33:40.107Z,5.78
2023-01-17T10:34:40.312Z,5.83
2023-01-17T10:35:40.528Z,5.87
2023-01-17T10:36:40.045Z,5.90
2023-01-17T10:37:40.055Z,5.88
2023-01-17T10:38:42.825Z,5.95
2023-01-17T10:39:40.013Z,5.95
2023-01-17T10:40:40.031Z,5.93
2023-01-17T10:41:39.984Z,6.05
2023-01-17T10:42:40.036Z,6.03
2023-01-17T10:43:40.631Z,5.98
2023-01-17T10:44:41.244Z,6.05
2023-01-17T10:45:39.934Z,6.01
2023-01-17T10:46:39.930Z,5.84
2023-01-17T10:47:39.945Z,5.96
2023-01-17T10:48:39.902Z,5.83
2023-01-17T10:49:39.891Z,5.84
2023-01-17T10:50:39.890Z,5.83
2023-01-17T10:51:39.899Z,5.77
2023-01-17T10:52:40.657Z,5.80
2023-01-17T10:53:41.737Z,5.78
2023-01-17T10:54:39.838Z,5.80
2023-01-17T10:55:39.824Z,5.83
2023-01-17T10:56:39.818Z,5.75
2023-01-17T10:57:39.816Z,5.80
2023-01-17T10:58:39.798Z,5.80
2023-01-17T10:59:39.824Z,5.77
2023-01-17T11:00:39.833Z,5.73
2023-01-17T11:01:41.130Z,5.69
2023-01-17T11:02:39.818Z,5.84
2023-01-17T11:03:39.741Z,5.75
2023-01-17T11:04:39.737Z,5.81
2023-01-17T11:05:39.728Z,5.83
2023-01-17T11:06:57.074Z,5.90
2023-01-17T11:07:40.919Z,5.88
2023-01-17T11:08:39.707Z,5.95
2023-01-17T11:09:39.709Z,5.87
2023-01-17T11:10:41.066Z,5.93
2023-01-17T11:11:39.654Z,5.93
2023-01-17T11:12:39.665Z,5.99
2023-01-17T11:13:39.654Z,6.06
2023-01-17T11:14:39.626Z,6.02
2023-01-17T11:15:39.746Z,6.14
2023-01-17T11:16:39.620Z,6.08
2023-01-17T11:17:39.604Z,6.16
2023-01-17T11:18:39.667Z,6.17
2023-01-17T11:19:40.415Z,6.33
2023-01-17T11:20:39.555Z,6.36
2023-01-17T11:21:39.555Z,6.30
2023-01-17T11:22:39.557Z,6.32
2023-01-17T11:23:39.523Z,6.35
2023-01-17T11:24:39.555Z,6.30
2023-01-17T11:25:39.509Z,6.46
2023-01-17T11:26:39.493Z,6.50
2023-01-17T11:27:39.572Z,6.50
2023-01-17T11:28:40.039Z,6.33
2023-01-17T11:29:39.468Z,6.32
2023-01-17T11:30:39.516Z,6.30
2023-01-17T11:31:39.460Z,6.16
2023-01-17T11:32:39.460Z,6.19
2023-01-17T11:33:39.458Z,6.24
2023-01-17T11:34:39.424Z,6.16
2023-01-17T11:35:39.411Z,6.11
2023-01-17T11:36:39.486Z,6.20
2023-01-17T11:37:40.290Z,6.20
2023-01-17T11:38:39.372Z,6.19
2023-01-17T11:39:39.351Z,6.19
2023-01-17T11:40:39.345Z,6.21
2023-01-17T11:41:39.376Z,6.19
2023-01-17T11:42:39.341Z,6.30
2023-01-17T11:43:39.321Z,6.46
2023-01-17T11:44:39.310Z,6.53
2023-01-17T11:45:39.395Z,6.35
2023-01-17T11:46:39.967Z,6.39
2023-01-17T11:47:39.308Z,6.14
2023-01-17T11:48:39.283Z,6.16
2023-01-17T11:49:39.266Z,6.24
2023-01-17T11:50:39.253Z,6.20
2023-01-17T11:51:39.241Z,6.25
2023-01-17T11:52:39.245Z,6.27
2023-01-17T11:53:39.198Z,6.21
2023-01-17T11:54:39.333Z,6.35
2023-01-17T11:55:39.396Z,6.27
2023-01-17T11:56:39.173Z,6.35
2023-01-17T11:57:39.271Z,6.30
2023-01-17T11:58:39.167Z,6.33
2023-01-17T11:59:39.142Z,6.33
2023-01-17T12:00:39.146Z,6.21
2023-01-17T12:01:39.119Z,6.38
2023-01-17T12:02:39.397Z,6.28
2023-01-17T12:03:39.299Z,6.25
2023-01-17T12:04:40.348Z,6.24
2023-01-17T12:05:39.068Z,6.27
2023-01-17T12:06:56.126Z,6.25
2023-01-17T12:07:40.258Z,6.16
2023-01-17T12:08:39.045Z,6.11
2023-01-17T12:09:39.038Z,6.11
2023-01-17T12:10:39.076Z,6.20
2023-01-17T12:11:39.021Z,6.20
2023-01-17T12:12:39.561Z,6.20
2023-01-17T12:13:39.911Z,6.28
2023-01-17T12:14:38.985Z,6.36
2023-01-17T12:15:39.069Z,6.38
2023-01-17T12:16:38.965Z,6.30
2023-01-17T12:17:38.966Z,6.25
2023-01-17T12:18:38.930Z,6.20
